Time;durP1;ratioP1;P1;durP2;ratioP2;P2;SDS_P1;SDS_P2;PMS_P1;PMS_P2;Temp;Humidity;BMP_temperature;BMP_pressure;BME280_temperature;BME280_humidity;BME280_pressure;Samples;Min_cycle;Max_cycle;Signal;HPM_P1;HPM_P2
2022/11/17 00:01:05;;;;;;;;;;;;;;;12.77;54.56;99483.13;4981176;28;126874;-64
2022/11/17 00:03:31;;;;;;;;;;;;;;;12.78;54.71;99492.88;4980399;27;123583;-67
2022/11/17 00:06:01;;;;;;;;;;;;;;;12.76;54.68;99487.75;4979183;27;98190;-67
2022/11/17 00:08:27;;;;;;;;;;;;;;;12.75;54.43;99483.44;4981225;28;102177;-64
2022/11/17 00:10:52;;;;;;;;;;;;;;;12.76;54.41;99492.34;4981461;28;126246;-66
2022/11/17 00:16:14;;;;;;;;;;;;;;;12.74;54.79;99486.47;4937576;28;98982;-67
2022/11/17 00:21:27;;;;;;;;;;;;;;;12.73;54.71;99498.38;4979207;28;97963;-67
2022/11/17 00:23:53;;;;;;;;;;;;;;;12.72;54.61;99491.38;4982605;27;98647;-67
2022/11/17 00:26:23;;;;;;;;;;;;;;;12.71;54.52;99490.56;4977249;28;127724;-64
2022/11/17 00:28:53;;;;;;;;;;;;;;;12.70;54.32;99488.97;4981562;28;97892;-63
2022/11/17 00:34:04;;;;;;;;;;;;;;;12.71;54.29;99495.19;4982054;28;98103;-67
2022/11/17 00:36:34;;;;;;;;;;;;;;;12.71;54.63;99500.59;4980019;28;97973;-67
2022/11/17 00:39:00;;;;;;;;;;;;;;;12.70;54.48;99493.59;4981328;28;98304;-67
2022/11/17 00:41:27;;;;;;;;;;;;;;;12.69;54.37;99492.78;4979752;28;128106;-67
2022/11/17 00:43:53;;;;;;;;;;;;;;;12.69;54.71;99495.50;4981547;28;98696;-64
2022/11/17 00:46:19;;;;;;;;;;;;;;;12.69;54.44;99494.69;4979728;27;123465;-67
2022/11/17 00:48:45;;;;;;;;;;;;;;;12.69;54.41;99498.19;4978354;28;119882;-64
2022/11/17 00:51:11;;;;;;;;;;;;;;;12.68;54.72;99495.78;4963489;28;98407;-64
2022/11/17 00:53:37;;;;;;;;;;;;;;;12.69;54.40;99489.25;4979486;28;127437;-64
2022/11/17 00:56:03;;;;;;;;;;;;;;;12.68;54.46;99485.75;4981513;27;126368;-67
2022/11/17 00:58:28;;;;;;;;;;;;;;;12.68;54.44;99483.06;4979959;27;117184;-64
2022/11/17 01:00:54;;;;;;;;;;;;;;;12.69;54.55;99491.97;4969895;28;127520;-64
2022/11/17 01:03:20;;;;;;;;;;;;;;;12.69;54.77;99476.56;4959171;28;127083;-64
2022/11/17 01:05:46;;;;;;;;;;;;;;;12.68;54.32;99477.66;4958101;28;128299;-64
2022/11/17 01:08:12;;;;;;;;;;;;;;;12.68;54.46;99474.94;4981516;28;116694;-64
2022/11/17 01:10:38;;;;;;;;;;;;;;;12.68;54.32;99485.75;4962341;28;117308;-67
2022/11/17 01:13:04;;;;;;;;;;;;;;;12.67;54.48;99472.56;4962161;28;127983;-63
2022/11/17 01:15:30;;;;;;;;;;;;;;;12.65;54.62;99466.66;4979841;28;126339;-67
2022/11/17 01:17:56;;;;;;;;;;;;;;;12.64;54.72;99465.84;4959681;28;116889;-64
2022/11/17 01:20:21;;;;;;;;;;;;;;;12.63;54.48;99466.16;4979969;28;128007;-67
2022/11/17 01:22:47;;;;;;;;;;;;;;;12.62;54.44;99457.25;4978571;28;128052;-64
2022/11/17 01:25:13;;;;;;;;;;;;;;;12.62;54.54;99453.75;4979299;28;126882;-64
2022/11/17 01:27:39;;;;;;;;;;;;;;;12.62;54.65;99448.34;4975923;28;117551;-67
2022/11/17 01:30:06;;;;;;;;;;;;;;;12.60;54.39;99454.06;4978565;28;127479;-67
2022/11/17 01:32:32;;;;;;;;;;;;;;;12.60;54.31;99454.06;4980672;28;99234;-67
2022/11/17 01:34:57;;;;;;;;;;;;;;;12.59;54.72;99452.47;4976662;28;101016;-64
2022/11/17 01:37:23;;;;;;;;;;;;;;;12.58;54.60;99450.88;4976115;28;117636;-67
2022/11/17 01:39:49;;;;;;;;;;;;;;;12.59;54.67;99451.66;4978793;28;128206;-63
2022/11/17 01:42:18;;;;;;;;;;;;;;;12.57;54.61;99446.53;4977345;28;98108;-67
2022/11/17 01:44:52;;;;;;;;;;;;;;;12.56;54.72;99447.66;4979839;28;98296;-63
2022/11/17 01:47:47;;;;;;;;;;;;;;;12.56;54.82;99450.34;4979403;28;97710;-67
2022/11/17 01:50:29;;;;;;;;;;;;;;;12.56;54.70;99441.44;4963700;28;98650;-64
2022/11/17 01:52:58;;;;;;;;;;;;;;;12.54;54.48;99441.78;4941677;28;98442;-66
2022/11/17 01:55:24;;;;;;;;;;;;;;;12.54;54.64;99444.47;4966052;28;98354;-63
2022/11/17 01:57:54;;;;;;;;;;;;;;;12.53;54.74;99450.97;4960611;28;108403;-66
2022/11/17 02:00:20;;;;;;;;;;;;;;;12.52;54.42;99450.16;4944278;28;99407;-67
2022/11/17 02:02:46;;;;;;;;;;;;;;;12.52;54.66;99455.56;4960693;28;101089;-67
2022/11/17 02:05:24;;;;;;;;;;;;;;;12.52;54.61;99455.56;4946427;28;126520;-67
2022/11/17 02:07:51;;;;;;;;;;;;;;;12.51;54.68;99453.97;4981120;27;98041;-67
2022/11/17 02:10:17;;;;;;;;;;;;;;;12.52;54.47;99443.97;4976601;28;127840;-63
2022/11/17 02:12:43;;;;;;;;;;;;;;;12.50;54.79;99438.88;4977084;28;128481;-67
2022/11/17 02:15:09;;;;;;;;;;;;;;;12.50;54.44;99438.88;4979623;28;127083;-63
2022/11/17 02:17:42;;;;;;;;;;;;;;;12.51;54.43;99436.97;4978105;28;115742;-67
2022/11/17 02:20:35;;;;;;;;;;;;;;;12.50;54.39;99440.78;4962079;28;98357;-67
2022/11/17 02:23:34;;;;;;;;;;;;;;;12.49;54.71;99434.53;4950902;28;98374;-67
2022/11/17 02:26:24;;;;;;;;;;;;;;;12.49;54.31;99433.75;4977743;28;126117;-63
2022/11/17 02:29:02;;;;;;;;;;;;;;;12.48;54.74;99427.56;4973645;28;97939;-63
2022/11/17 02:31:39;;;;;;;;;;;;;;;12.46;54.51;99418.97;4967812;28;98458;-67
2022/11/17 02:34:35;;;;;;;;;;;;;;;12.47;54.64;99423.25;4961002;28;128569;-63
2022/11/17 02:37:17;;;;;;;;;;;;;;;12.47;54.49;99427.88;4981342;28;98938;-63
2022/11/17 02:39:48;;;;;;;;;;;;;;;12.47;54.55;99422.47;4949041;28;118325;-62
2022/11/17 02:42:17;;;;;;;;;;;;;;;12.45;54.45;99414.63;4978783;28;128008;-66
2022/11/17 02:44:56;;;;;;;;;;;;;;;12.45;54.72;99409.22;4977089;27;102448;-67
2022/11/17 02:47:25;;;;;;;;;;;;;;;12.44;54.45;99413.03;4963500;28;117295;-67
2022/11/17 02:49:58;;;;;;;;;;;;;;;12.45;54.44;99408.44;4947992;27;112034;-63
2022/11/17 02:52:25;;;;;;;;;;;;;;;12.44;54.43;99414.97;4961704;28;115235;-63
2022/11/17 02:54:51;;;;;;;;;;;;;;;12.43;54.68;99418.78;4942326;28;125964;-66
2022/11/17 02:57:33;;;;;;;;;;;;;;;12.42;54.48;99417.97;4981993;28;128090;-66
2022/11/17 03:00:01;;;;;;;;;;;;;;;12.41;54.79;99421.75;4982606;27;97929;-63
2022/11/17 03:02:33;;;;;;;;;;;;;;;12.41;54.67;99419.06;4963429;28;124222;-63
2022/11/17 03:05:03;;;;;;;;;;;;;;;12.42;54.53;99425.28;4944905;28;128476;-63
2022/11/17 03:07:50;;;;;;;;;;;;;;;12.40;54.65;99417.47;4957908;28;98272;-67
2022/11/17 03:10:21;;;;;;;;;;;;;;;12.40;54.46;99409.34;4961023;28;97995;-65
2022/11/17 03:12:54;;;;;;;;;;;;;;;12.39;54.69;99402.38;4945765;28;121823;-67
2022/11/17 03:15:45;;;;;;;;;;;;;;;12.39;54.46;99405.06;4964618;28;99041;-66
2022/11/17 03:18:16;;;;;;;;;;;;;;;12.39;54.63;99410.47;4980333;28;97946;-63
2022/11/17 03:20:55;;;;;;;;;;;;;;;12.39;54.63;99417.78;4962198;28;105796;-63
2022/11/17 03:23:24;;;;;;;;;;;;;;;12.38;54.52;99418.88;4965667;28;99337;-66
2022/11/17 03:25:53;;;;;;;;;;;;;;;12.38;54.40;99416.16;4978701;28;98958;-63
2022/11/17 03:28:20;;;;;;;;;;;;;;;12.38;54.54;99421.56;4980800;28;98179;-63
2022/11/17 03:30:46;;;;;;;;;;;;;;;12.38;54.47;99413.47;4982018;28;117326;-63
2022/11/17 03:33:17;;;;;;;;;;;;;;;12.37;54.43;99423.47;4979902;28;127836;-62
2022/11/17 03:35:50;;;;;;;;;;;;;;;12.37;54.54;99412.66;4963510;28;98753;-62
2022/11/17 03:38:16;;;;;;;;;;;;;;;12.37;54.44;99412.66;4946588;27;123310;-63
2022/11/17 03:40:43;;;;;;;;;;;;;;;12.37;54.46;99418.06;4967419;28;98029;-66
2022/11/17 03:43:09;;;;;;;;;;;;;;;12.37;54.48;99417.28;4960321;28;99294;-63
2022/11/17 03:45:38;;;;;;;;;;;;;;;12.37;54.44;99414.56;4960133;28;98523;-66
2022/11/17 03:48:18;;;;;;;;;;;;;;;12.36;54.57;99408.38;4978433;28;127892;-67
2022/11/17 03:51:05;;;;;;;;;;;;;;;12.36;54.49;99415.69;4972820;28;116171;-67
2022/11/17 03:53:31;;;;;;;;;;;;;;;12.33;54.46;99400.06;4967736;27;99168;-63
2022/11/17 03:56:22;;;;;;;;;;;;;;;12.35;54.66;99406.78;4964247;28;99188;-66
2022/11/17 03:58:55;;;;;;;;;;;;;;;12.34;54.55;99407.88;4984149;27;98453;-63
2022/11/17 04:01:21;;;;;;;;;;;;;;;12.33;54.40;99403.56;4969927;27;116218;-66
2022/11/17 04:03:47;;;;;;;;;;;;;;;12.34;54.53;99398.97;4942867;28;125869;-66
2022/11/17 04:06:13;;;;;;;;;;;;;;;12.34;54.61;99407.06;4980471;27;129267;-63
2022/11/17 04:08:39;;;;;;;;;;;;;;;12.34;54.37;99399.78;4981861;27;126707;-62
2022/11/17 04:16:34;;;;;;;;;;;;;;;12.34;54.62;99404.34;4976924;28;98354;-63
2022/11/17 04:19:00;;;;;;;;;;;;;;;12.32;54.67;99404.69;4963294;28;103511;-67
2022/11/17 04:21:26;;;;;;;;;;;;;;;12.33;54.45;99408.97;4978703;28;117584;-66
2022/11/17 04:23:52;;;;;;;;;;;;;;;12.33;54.36;99408.19;4980438;28;127317;-63
2022/11/17 04:29:02;;;;;;;;;;;;;;;12.32;54.56;99399.28;4963923;28;98034;-63
2022/11/17 04:31:29;;;;;;;;;;;;;;;12.32;54.60;99399.28;4959172;28;100800;-63
2022/11/17 04:34:02;;;;;;;;;;;;;;;12.31;54.77;99403.09;4980772;28;98143;-66
2022/11/17 04:36:35;;;;;;;;;;;;;;;12.31;54.43;99396.88;4979491;27;98352;-67
2022/11/17 04:39:01;;;;;;;;;;;;;;;12.31;54.52;99400.38;4980997;27;98122;-67
2022/11/17 04:44:14;;;;;;;;;;;;;;;12.29;54.41;99395.25;4980045;28;98049;-63
2022/11/17 04:46:40;;;;;;;;;;;;;;;12.29;54.36;99391.78;4977900;27;128204;-63
2022/11/17 04:49:06;;;;;;;;;;;;;;;12.28;54.49;99393.69;4961892;28;98501;-66
2022/11/17 04:51:32;;;;;;;;;;;;;;;12.28;54.64;99388.28;4977233;27;117523;-63
2022/11/17 04:53:58;;;;;;;;;;;;;;;12.27;54.61;99383.97;4980466;28;125353;-63
2022/11/17 04:56:24;;;;;;;;;;;;;;;12.28;54.52;99379.38;4978417;28;107122;-66
2022/11/17 04:58:51;;;;;;;;;;;;;;;12.27;54.40;99378.56;4980725;27;97915;-63
2022/11/17 05:01:17;;;;;;;;;;;;;;;12.26;54.38;99376.97;4979008;27;116997;-67
2022/11/17 05:03:47;;;;;;;;;;;;;;;12.25;54.27;99375.38;4981637;28;98126;-68
2022/11/17 05:06:18;;;;;;;;;;;;;;;12.26;54.42;99376.97;4980626;27;98409;-64
2022/11/17 05:08:44;;;;;;;;;;;;;;;12.26;54.36;99376.16;4980164;28;98181;-67
2022/11/17 05:13:55;;;;;;;;;;;;;;;12.24;54.26;99376.47;4980787;28;98066;-64
2022/11/17 05:19:06;;;;;;;;;;;;;;;12.23;54.32;99366.78;4980519;27;98022;-64
2022/11/17 05:21:32;;;;;;;;;;;;;;;12.22;54.46;99367.06;4964378;27;116489;-67
2022/11/17 05:23:58;;;;;;;;;;;;;;;12.22;54.62;99372.47;4978500;28;111648;-66
2022/11/17 05:26:31;;;;;;;;;;;;;;;12.22;54.39;99372.47;4972202;27;128708;-64
2022/11/17 05:28:58;;;;;;;;;;;;;;;12.21;54.40;99370.88;4974561;28;127271;-66
2022/11/17 05:31:25;;;;;;;;;;;;;;;12.20;54.71;99361.97;4974417;28;111988;-67
2022/11/17 05:33:50;;;;;;;;;;;;;;;12.19;54.25;99359.59;4975697;28;128998;-67
2022/11/17 05:36:17;;;;;;;;;;;;;;;12.21;54.42;99362.78;4977057;28;98575;-67
2022/11/17 05:38:43;;;;;;;;;;;;;;;12.20;54.43;99361.97;4958516;28;118107;-66
2022/11/17 05:41:09;;;;;;;;;;;;;;;12.20;54.51;99367.38;4960464;28;98008;-64
2022/11/17 05:43:35;;;;;;;;;;;;;;;12.20;54.50;99363.88;4976567;27;125955;-68
2022/11/17 05:46:00;;;;;;;;;;;;;;;12.19;54.33;99356.88;4975604;28;98358;-67
2022/11/17 05:48:26;;;;;;;;;;;;;;;12.20;54.39;99355.78;4976303;28;125559;-66
2022/11/17 05:50:53;;;;;;;;;;;;;;;12.20;54.39;99363.88;4973796;28;117469;-63
2022/11/17 05:53:20;;;;;;;;;;;;;;;12.19;54.36;99354.19;4976088;28;126150;-63
2022/11/17 05:55:46;;;;;;;;;;;;;;;12.19;54.66;99348.78;4957821;28;108143;-63
2022/11/17 05:58:18;;;;;;;;;;;;;;;12.19;54.43;99354.97;4977488;27;125516;-67
2022/11/17 06:00:44;;;;;;;;;;;;;;;12.20;54.43;99336.88;4957698;28;117275;-66
2022/11/17 06:03:26;;;;;;;;;;;;;;;12.19;54.60;99348.78;4946730;28;101811;-63
2022/11/17 06:05:52;;;;;;;;;;;;;;;12.18;54.60;99342.59;4962021;28;126269;-63
2022/11/17 06:08:18;;;;;;;;;;;;;;;12.17;54.38;99348.28;4982805;27;115888;-63
2022/11/17 06:10:44;;;;;;;;;;;;;;;12.18;54.44;99349.88;4966007;28;115165;-67
2022/11/17 06:13:10;;;;;;;;;;;;;;;12.19;54.52;99352.28;4964183;28;126183;-66
2022/11/17 06:15:37;;;;;;;;;;;;;;;12.19;54.58;99362.28;4983016;28;124425;-63
2022/11/17 06:18:09;;;;;;;;;;;;;;;12.20;54.40;99366.59;4980745;28;99478;-66
2022/11/17 06:20:37;;;;;;;;;;;;;;;12.19;54.47;99362.28;4982127;27;117936;-63
2022/11/17 06:23:04;;;;;;;;;;;;;;;12.20;54.64;99358.47;4966578;28;98014;-66
2022/11/17 06:25:31;;;;;;;;;;;;;;;12.19;54.54;99349.56;4934341;28;98676;-63
2022/11/17 06:27:57;;;;;;;;;;;;;;;12.20;54.30;99348.47;4956389;28;126079;-63
2022/11/17 06:30:22;;;;;;;;;;;;;;;12.21;54.52;99343.88;4969943;27;115222;-66
2022/11/17 06:32:48;;;;;;;;;;;;;;;12.21;54.42;99346.56;4973233;28;128641;-63
2022/11/17 06:35:15;;;;;;;;;;;;;;;12.20;54.53;99343.06;4982727;27;98525;-63
2022/11/17 06:37:41;;;;;;;;;;;;;;;12.21;54.30;99338.47;4968080;28;98191;-63
2022/11/17 06:40:08;;;;;;;;;;;;;;;12.21;54.54;99336.56;4981823;28;116440;-63
2022/11/17 06:45:21;;;;;;;;;;;;;;;12.21;54.35;99336.56;4980965;28;98009;-62
2022/11/17 06:47:47;;;;;;;;;;;;;;;12.23;54.51;99337.06;4983273;28;126978;-63
2022/11/17 06:50:13;;;;;;;;;;;;;;;12.22;54.52;99330.06;4983726;28;115610;-62
2022/11/17 06:52:39;;;;;;;;;;;;;;;12.24;54.52;99335.94;4982429;28;128453;-63
2022/11/17 06:55:05;;;;;;;;;;;;;;;12.23;54.30;99334.34;4984560;27;128104;-63
2022/11/17 06:57:31;;;;;;;;;;;;;;;12.26;54.57;99338.34;4982761;27;98717;-63
2022/11/17 06:59:57;;;;;;;;;;;;;;;12.27;54.35;99348.84;4964571;28;115118;-66
2022/11/17 07:02:23;;;;;;;;;;;;;;;12.27;54.16;99346.16;4967605;28;127644;-66
2022/11/17 07:04:49;;;;;;;;;;;;;;;12.28;54.47;99355.06;4982155;28;128404;-63
2022/11/17 07:07:15;;;;;;;;;;;;;;;12.27;54.26;99356.97;4978689;28;127438;-66
2022/11/17 07:09:41;;;;;;;;;;;;;;;12.28;54.41;99341.53;4981873;28;115627;-63
2022/11/17 07:12:07;;;;;;;;;;;;;;;12.29;54.47;99343.94;4983241;27;127955;-66
2022/11/17 07:14:32;;;;;;;;;;;;;;;12.30;54.33;99347.44;4983362;27;98775;-66
2022/11/17 07:16:58;;;;;;;;;;;;;;;12.31;54.13;99332.84;4980734;28;127829;-66
2022/11/17 07:19:24;;;;;;;;;;;;;;;12.33;54.42;99336.00;4982524;28;115441;-66
2022/11/17 07:21:50;;;;;;;;;;;;;;;12.35;54.21;99331.13;4982562;28;114990;-66
2022/11/17 07:24:16;;;;;;;;;;;;;;;12.38;54.15;99326.97;4982490;28;127155;-66
2022/11/17 07:26:42;;;;;;;;;;;;;;;12.42;54.32;99326.09;4962015;28;126841;-63
2022/11/17 07:29:08;;;;;;;;;;;;;;;12.47;54.33;99330.56;4983263;28;117464;-66
2022/11/17 07:31:35;;;;;;;;;;;;;;;12.50;54.25;99321.84;4977633;28;100339;-66
2022/11/17 07:34:01;;;;;;;;;;;;;;;12.54;54.25;99328.25;4964726;28;98541;-63
2022/11/17 07:36:27;;;;;;;;;;;;;;;12.57;54.18;99326.81;4981311;27;127018;-67
2022/11/17 07:38:53;;;;;;;;;;;;;;;12.59;54.19;99324.63;4981083;28;117397;-66
2022/11/17 07:41:19;;;;;;;;;;;;;;;12.61;54.06;99325.88;4980955;28;126300;-63
2022/11/17 07:43:45;;;;;;;;;;;;;;;12.62;54.04;99311.28;4983737;28;102306;-67
2022/11/17 07:46:12;;;;;;;;;;;;;;;12.64;54.00;99314.47;4980580;27;128643;-66
2022/11/17 07:48:38;;;;;;;;;;;;;;;12.67;54.22;99315.75;4965353;28;98003;-67
2022/11/17 07:51:04;;;;;;;;;;;;;;;12.67;54.09;99308.44;4980863;28;98358;-62
2022/11/17 07:53:32;;;;;;;;;;;;;;;12.70;53.92;99312.44;4980806;27;127455;-66
2022/11/17 07:56:05;;;;;;;;;;;;;;;12.71;54.02;99304.00;4964584;28;97895;-66
2022/11/17 07:58:31;;;;;;;;;;;;;;;12.74;53.93;99299.91;4982675;27;102444;-66
2022/11/17 08:00:57;;;;;;;;;;;;;;;12.80;54.15;99295.94;4983039;28;104930;-63
2022/11/17 08:03:23;;;;;;;;;;;;;;;12.85;54.16;99295.84;4981501;28;99073;-66
2022/11/17 08:05:49;;;;;;;;;;;;;;;12.87;54.21;99301.72;4983209;28;98347;-66
2022/11/17 08:08:15;;;;;;;;;;;;;;;12.89;53.65;99298.69;4981838;28;118055;-67
2022/11/17 08:10:41;;;;;;;;;;;;;;;12.89;54.16;99304.91;4963310;28;100129;-67
2022/11/17 08:13:08;;;;;;;;;;;;;;;12.92;54.13;99312.38;4980107;28;99251;-66
2022/11/17 08:15:34;;;;;;;;;;;;;;;12.97;54.10;99311.47;4983339;28;98407;-66
2022/11/17 08:18:01;;;;;;;;;;;;;;;12.98;54.17;99304.97;4980479;28;97923;-62
2022/11/17 08:20:28;;;;;;;;;;;;;;;13.01;54.13;99302.44;4981436;28;114583;-62
2022/11/17 08:22:54;;;;;;;;;;;;;;;13.04;53.90;99301.00;4982813;28;99140;-62
2022/11/17 08:25:20;;;;;;;;;;;;;;;13.03;54.10;99302.91;4979436;27;98534;-66
2022/11/17 08:27:50;;;;;;;;;;;;;;;13.05;53.71;99302.59;4967188;27;117332;-66
2022/11/17 08:30:17;;;;;;;;;;;;;;;13.06;53.93;99316.94;4982338;28;98053;-63
2022/11/17 08:32:51;;;;;;;;;;;;;;;13.06;54.22;99311.50;4980213;28;97899;-67
2022/11/17 08:35:17;;;;;;;;;;;;;;;13.06;54.10;99312.31;4982433;27;99177;-66
2022/11/17 08:37:43;;;;;;;;;;;;;;;13.04;53.86;99311.81;4974906;28;97883;-62
2022/11/17 08:40:10;;;;;;;;;;;;;;;13.06;54.22;99314.22;4980125;27;106527;-66
2022/11/17 08:42:36;;;;;;;;;;;;;;;13.04;54.14;99314.50;4965618;28;124941;-62
2022/11/17 08:45:03;;;;;;;;;;;;;;;13.05;54.18;99318.84;4980800;28;127113;-66
2022/11/17 08:47:29;;;;;;;;;;;;;;;13.07;54.05;99326.63;4978740;28;98209;-67
2022/11/17 08:49:55;;;;;;;;;;;;;;;13.08;53.90;99315.50;4981882;28;127700;-66
2022/11/17 08:52:21;;;;;;;;;;;;;;;13.10;54.17;99318.69;4981429;27;128160;-63
2022/11/17 08:54:47;;;;;;;;;;;;;;;13.14;54.11;99316.16;4977161;28;98951;-67
2022/11/17 08:57:13;;;;;;;;;;;;;;;13.15;54.06;99315.84;4978638;28;97934;-62
2022/11/17 08:59:39;;;;;;;;;;;;;;;13.20;53.76;99314.91;4979588;28;128948;-67
2022/11/17 09:02:05;;;;;;;;;;;;;;;13.22;53.95;99327.03;4980491;28;129502;-62
2022/11/17 09:04:31;;;;;;;;;;;;;;;13.24;53.85;99314.03;4980986;28;128978;-66
2022/11/17 09:06:57;;;;;;;;;;;;;;;13.27;53.71;99324.19;4945735;28;117999;-63
2022/11/17 09:09:22;;;;;;;;;;;;;;;13.28;53.93;99327.69;4947678;28;98438;-67
2022/11/17 09:11:48;;;;;;;;;;;;;;;13.27;53.73;99331.53;4979776;28;128161;-67
2022/11/17 09:14:14;;;;;;;;;;;;;;;13.29;54.11;99334.72;4979114;28;127118;-66
2022/11/17 09:16:40;;;;;;;;;;;;;;;13.30;54.11;99336.31;4979829;28;117573;-66
2022/11/17 09:19:06;;;;;;;;;;;;;;;13.28;53.91;99333.09;4968013;28;115210;-66
2022/11/17 09:21:32;;;;;;;;;;;;;;;13.30;54.18;99332.81;4979898;28;121448;-63
2022/11/17 09:23:58;;;;;;;;;;;;;;;13.35;54.12;99330.75;4982121;28;98265;-63
2022/11/17 09:26:24;;;;;;;;;;;;;;;13.39;53.73;99326.31;4980827;28;101144;-63
2022/11/17 09:28:50;;;;;;;;;;;;;;;13.44;53.79;99319.97;4979722;28;112155;-67
2022/11/17 09:31:18;;;;;;;;;;;;;;;13.47;53.73;99322.03;4980475;28;127352;-66
2022/11/17 09:33:44;;;;;;;;;;;;;;;13.50;53.88;99319.50;4981363;28;122721;-67
2022/11/17 09:36:10;;;;;;;;;;;;;;;13.53;53.68;99311.88;4980892;27;116041;-67
2022/11/17 09:38:36;;;;;;;;;;;;;;;13.58;53.66;99315.22;4980315;28;99091;-63
2022/11/17 09:41:15;;;;;;;;;;;;;;;13.63;53.74;99306.16;4982129;28;99193;-66
2022/11/17 09:43:51;;;;;;;;;;;;;;;13.69;53.73;99300.28;4958257;28;98523;-63
2022/11/17 09:46:30;;;;;;;;;;;;;;;13.74;53.61;99300.13;4962643;27;99603;-66
2022/11/17 09:49:07;;;;;;;;;;;;;;;13.78;53.63;99303.00;4978575;28;123102;-63
2022/11/17 09:51:33;;;;;;;;;;;;;;;13.79;53.75;99310.00;4961757;28;110909;-63
2022/11/17 09:54:02;;;;;;;;;;;;;;;13.82;53.38;99309.38;4944945;28;98131;-63
2022/11/17 09:56:28;;;;;;;;;;;;;;;13.87;53.78;99301.13;4958647;28;98309;-66
2022/11/17 09:58:58;;;;;;;;;;;;;;;13.92;53.42;99297.47;4944692;28;127744;-63
2022/11/17 10:01:26;;;;;;;;;;;;;;;13.98;53.68;99302.38;4980277;28;126534;-67
2022/11/17 10:03:52;;;;;;;;;;;;;;;14.07;53.89;99291.56;4964653;28;124660;-66
2022/11/17 10:06:19;;;;;;;;;;;;;;;14.18;53.16;99287.41;4978727;28;98235;-67
2022/11/17 10:08:52;;;;;;;;;;;;;;;14.24;53.24;99302.41;4962433;28;98301;-63
2022/11/17 10:11:33;;;;;;;;;;;;;;;14.27;53.34;99298.28;4956806;28;98859;-63
2022/11/17 10:14:19;;;;;;;;;;;;;;;14.28;53.50;99293.63;4980077;28;98421;-63
2022/11/17 10:16:48;;;;;;;;;;;;;;;14.29;53.46;99293.31;4982109;28;97938;-63
2022/11/17 10:19:19;;;;;;;;;;;;;;;14.33;53.18;99290.75;4967020;28;98539;-67
2022/11/17 10:21:46;;;;;;;;;;;;;;;14.38;53.47;99282.44;4978418;28;97971;-63
2022/11/17 10:24:37;;;;;;;;;;;;;;;14.39;53.53;99286.78;4940799;28;121318;-66
2022/11/17 10:27:30;;;;;;;;;;;;;;;14.40;53.30;99281.03;4964205;28;97982;-63
2022/11/17 10:29:57;;;;;;;;;;;;;;;14.41;53.33;99281.81;4976921;28;98698;-62
2022/11/17 10:32:23;;;;;;;;;;;;;;;14.40;53.34;99275.59;4969155;27;98765;-63
2022/11/17 10:34:49;;;;;;;;;;;;;;;14.39;53.61;99273.22;4977134;28;124810;-63
2022/11/17 10:37:17;;;;;;;;;;;;;;;14.38;53.50;99275.16;4976336;27;97728;-67
2022/11/17 10:39:43;;;;;;;;;;;;;;;14.37;53.62;99272.75;4975217;28;98512;-66
2022/11/17 10:42:21;;;;;;;;;;;;;;;14.37;53.47;99270.03;4957504;28;128857;-63
2022/11/17 10:44:51;;;;;;;;;;;;;;;14.38;53.54;99277.84;4964598;28;98016;-63
2022/11/17 10:47:36;;;;;;;;;;;;;;;14.39;53.57;99276.72;4975236;28;98218;-64
2022/11/17 10:50:22;;;;;;;;;;;;;;;14.41;53.44;99271.78;4957516;28;126528;-63
2022/11/17 10:52:49;;;;;;;;;;;;;;;14.41;53.75;99266.34;4981282;28;98653;-66
2022/11/17 10:55:30;;;;;;;;;;;;;;;14.44;53.62;99259.50;4942181;28;99373;-63
2022/11/17 10:57:57;;;;;;;;;;;;;;;14.45;53.46;99261.09;4957744;28;98440;-63
2022/11/17 11:00:26;;;;;;;;;;;;;;;14.46;53.77;99254.53;4959071;28;108815;-66
2022/11/17 11:03:16;;;;;;;;;;;;;;;14.45;53.50;99248.31;4980227;28;98764;-63
2022/11/17 11:06:01;;;;;;;;;;;;;;;14.41;53.71;99255.50;4971725;28;98156;-63
2022/11/17 11:08:46;;;;;;;;;;;;;;;14.39;53.91;99255.03;4978351;28;98133;-63
2022/11/17 11:11:40;;;;;;;;;;;;;;;14.36;53.55;99250.25;4961251;28;128086;-67
2022/11/17 11:14:16;;;;;;;;;;;;;;;14.34;53.56;99247.06;4962184;28;125106;-67
2022/11/17 11:16:46;;;;;;;;;;;;;;;14.31;53.59;99242.31;4974860;27;98292;-66
2022/11/17 11:19:14;;;;;;;;;;;;;;;14.27;53.54;99246.78;4977288;27;97918;-62
2022/11/17 11:21:45;;;;;;;;;;;;;;;14.22;54.06;99242.28;4959706;28;98138;-63
2022/11/17 11:24:30;;;;;;;;;;;;;;;14.20;53.62;99246.47;4980928;28;98288;-67
2022/11/17 11:27:40;;;;;;;;;;;;;;;14.19;53.83;99242.97;4959769;28;102146;-67
2022/11/17 11:30:10;;;;;;;;;;;;;;;14.18;53.87;99229.72;4962752;28;98222;-67
2022/11/17 11:32:50;;;;;;;;;;;;;;;14.18;53.91;99238.63;4960648;28;98500;-67
2022/11/17 11:35:25;;;;;;;;;;;;;;;14.16;53.71;99240.88;4957985;28;126996;-66
2022/11/17 11:37:58;;;;;;;;;;;;;;;14.15;53.62;99238.50;4970787;27;99609;-63
2022/11/17 11:40:47;;;;;;;;;;;;;;;14.13;53.82;99232.59;4941861;28;104657;-63
2022/11/17 11:43:25;;;;;;;;;;;;;;;14.11;53.88;99229.38;4958690;28;115781;-63
2022/11/17 11:46:16;;;;;;;;;;;;;;;14.10;53.89;99225.09;4962781;28;100000;-63
2022/11/17 11:48:42;;;;;;;;;;;;;;;14.06;53.72;99230.34;4943424;28;112277;-66
2022/11/17 11:51:18;;;;;;;;;;;;;;;14.01;53.79;99222.41;4960562;28;98233;-63
2022/11/17 11:54:15;;;;;;;;;;;;;;;13.98;54.13;99225.75;4962407;28;98963;-63
2022/11/17 11:56:43;;;;;;;;;;;;;;;13.95;54.12;99218.25;4973752;28;98347;-66
2022/11/17 11:59:20;;;;;;;;;;;;;;;13.92;53.79;99214.28;4964221;27;98301;-63
2022/11/17 12:02:11;;;;;;;;;;;;;;;13.91;54.02;99218.13;4959962;28;108185;-63
2022/11/17 12:04:45;;;;;;;;;;;;;;;13.92;54.10;99217.00;4978610;28;99225;-67
2022/11/17 12:07:25;;;;;;;;;;;;;;;13.93;53.76;99212.38;4977085;28;98152;-67
2022/11/17 12:10:14;;;;;;;;;;;;;;;13.97;53.86;99211.41;4959548;28;124420;-67
2022/11/17 12:12:40;;;;;;;;;;;;;;;14.00;53.73;99202.63;4960048;28;98186;-67
2022/11/17 12:15:18;;;;;;;;;;;;;;;14.03;53.83;99198.50;4942735;28;98870;-63
2022/11/17 12:18:03;;;;;;;;;;;;;;;14.03;53.68;99208.53;4978185;28;98916;-67
2022/11/17 12:20:32;;;;;;;;;;;;;;;14.03;53.95;99198.50;4978040;28;97827;-63
2022/11/17 12:23:13;;;;;;;;;;;;;;;14.03;53.57;99197.69;4979058;28;97835;-63
2022/11/17 12:25:45;;;;;;;;;;;;;;;14.02;54.02;99194.19;4946217;28;98617;-67
2022/11/17 12:28:38;;;;;;;;;;;;;;;14.02;53.76;99196.09;4956311;28;98241;-67
2022/11/17 12:31:05;;;;;;;;;;;;;;;14.01;53.85;99192.59;4972442;27;98128;-63
2022/11/17 12:33:50;;;;;;;;;;;;;;;13.99;53.88;99192.94;4960543;28;98137;-63
2022/11/17 12:36:30;;;;;;;;;;;;;;;13.96;53.87;99193.56;4977362;28;98913;-67
2022/11/17 12:38:56;;;;;;;;;;;;;;;13.94;53.74;99176.03;4975926;28;98830;-64
2022/11/17 12:41:47;;;;;;;;;;;;;;;13.92;54.00;99186.41;4976388;28;113678;-64
2022/11/17 12:44:37;;;;;;;;;;;;;;;13.90;53.94;99184.00;4976615;28;97970;-67
2022/11/17 12:47:06;;;;;;;;;;;;;;;13.88;53.81;99186.25;4971476;28;98970;-63
2022/11/17 12:49:37;;;;;;;;;;;;;;;13.87;53.80;99181.13;4977513;28;98382;-64
2022/11/17 12:52:03;;;;;;;;;;;;;;;13.86;54.02;99180.34;4937026;28;127070;-64
2022/11/17 12:54:40;;;;;;;;;;;;;;;13.87;53.84;99186.53;4976714;28;116865;-67
2022/11/17 12:57:10;;;;;;;;;;;;;;;13.85;53.98;99181.47;4942645;28;118603;-64
2022/11/17 13:00:13;;;;;;;;;;;;;;;13.86;53.97;99185.75;4973283;28;127239;-67
2022/11/17 13:03:16;;;;;;;;;;;;;;;13.88;53.79;99182.75;4975879;28;100469;-67
2022/11/17 13:05:42;;;;;;;;;;;;;;;13.91;53.75;99187.50;4959649;28;97992;-67
2022/11/17 13:08:14;;;;;;;;;;;;;;;13.91;53.78;99187.50;4957142;28;127431;-64
2022/11/17 13:10:40;;;;;;;;;;;;;;;13.92;53.93;99191.81;4978554;27;98732;-67
2022/11/17 13:13:16;;;;;;;;;;;;;;;13.92;53.57;99187.19;4976055;27;127421;-67
2022/11/17 13:15:42;;;;;;;;;;;;;;;13.95;53.96;99191.16;4959262;28;98342;-68
2022/11/17 13:18:40;;;;;;;;;;;;;;;13.95;53.55;99191.16;4977933;28;98451;-67
2022/11/17 13:21:27;;;;;;;;;;;;;;;13.94;53.67;99186.84;4920247;28;119299;-67
2022/11/17 13:23:53;;;;;;;;;;;;;;;13.94;53.57;99182.25;4979103;28;98698;-67
2022/11/17 13:26:22;;;;;;;;;;;;;;;13.94;54.04;99176.81;4942326;28;108602;-66